sensor_id;sensor_type;location;lat;lon;timestamp;temperature;humidity
25732;DHT22;13585;50.864;4.406;2023-04-24T00:01:40;19.40;67.60
25732;DHT22;13585;50.864;4.406;2023-04-24T00:04:08;19.40;67.50
25732;DHT22;13585;50.864;4.406;2023-04-24T00:06:37;19.40;67.30
25732;DHT22;13585;50.864;4.406;2023-04-24T00:09:03;19.40;67.20
25732;DHT22;13585;50.864;4.406;2023-04-24T00:11:29;19.40;67.10
25732;DHT22;13585;50.864;4.406;2023-04-24T00:13:56;19.40;67.00
25732;DHT22;13585;50.864;4.406;2023-04-24T00:16:22;19.40;67.00
25732;DHT22;13585;50.864;4.406;2023-04-24T00:18:48;19.40;66.80
25732;DHT22;13585;50.864;4.406;2023-04-24T00:21:15;19.40;66.70
25732;DHT22;13585;50.864;4.406;2023-04-24T00:23:43;19.40;66.70
25732;DHT22;13585;50.864;4.406;2023-04-24T00:26:09;19.40;66.70
25732;DHT22;13585;50.864;4.406;2023-04-24T00:28:34;19.40;66.50
25732;DHT22;13585;50.864;4.406;2023-04-24T00:31:00;19.40;66.50
25732;DHT22;13585;50.864;4.406;2023-04-24T00:33:26;19.40;66.40
25732;DHT22;13585;50.864;4.406;2023-04-24T00:35:52;19.40;66.30
25732;DHT22;13585;50.864;4.406;2023-04-24T00:38:18;19.40;66.30
25732;DHT22;13585;50.864;4.406;2023-04-24T00:40:43;19.40;66.20
25732;DHT22;13585;50.864;4.406;2023-04-24T00:43:09;19.40;66.10
25732;DHT22;13585;50.864;4.406;2023-04-24T00:45:35;19.40;66.10
25732;DHT22;13585;50.864;4.406;2023-04-24T00:48:01;19.40;66.00
25732;DHT22;13585;50.864;4.406;2023-04-24T00:50:28;19.40;65.90
25732;DHT22;13585;50.864;4.406;2023-04-24T00:52:54;19.40;65.80
25732;DHT22;13585;50.864;4.406;2023-04-24T00:55:20;19.40;65.80
25732;DHT22;13585;50.864;4.406;2023-04-24T00:57:47;19.40;65.70
25732;DHT22;13585;50.864;4.406;2023-04-24T01:00:14;19.40;65.60
25732;DHT22;13585;50.864;4.406;2023-04-24T01:02:41;19.40;65.60
25732;DHT22;13585;50.864;4.406;2023-04-24T01:05:14;19.30;65.50
25732;DHT22;13585;50.864;4.406;2023-04-24T01:07:45;19.40;65.50
25732;DHT22;13585;50.864;4.406;2023-04-24T01:10:13;19.40;65.40
25732;DHT22;13585;50.864;4.406;2023-04-24T01:12:39;19.40;65.40
25732;DHT22;13585;50.864;4.406;2023-04-24T01:15:06;19.40;65.30
25732;DHT22;13585;50.864;4.406;2023-04-24T01:17:32;19.30;65.20
25732;DHT22;13585;50.864;4.406;2023-04-24T01:19:59;19.40;65.10
25732;DHT22;13585;50.864;4.406;2023-04-24T01:22:25;19.40;65.10
25732;DHT22;13585;50.864;4.406;2023-04-24T01:24:51;19.30;65.00
25732;DHT22;13585;50.864;4.406;2023-04-24T01:27:17;19.30;64.90
25732;DHT22;13585;50.864;4.406;2023-04-24T01:29:43;19.40;64.90
25732;DHT22;13585;50.864;4.406;2023-04-24T01:32:08;19.30;64.80
25732;DHT22;13585;50.864;4.406;2023-04-24T01:34:34;19.30;64.80
25732;DHT22;13585;50.864;4.406;2023-04-24T01:37:00;19.30;64.70
25732;DHT22;13585;50.864;4.406;2023-04-24T01:39:26;19.30;64.60
25732;DHT22;13585;50.864;4.406;2023-04-24T01:41:54;19.30;64.60
25732;DHT22;13585;50.864;4.406;2023-04-24T01:44:20;19.30;64.50
25732;DHT22;13585;50.864;4.406;2023-04-24T01:46:46;19.30;64.50
25732;DHT22;13585;50.864;4.406;2023-04-24T01:49:11;19.30;64.40
25732;DHT22;13585;50.864;4.406;2023-04-24T01:51:37;19.30;64.40
25732;DHT22;13585;50.864;4.406;2023-04-24T01:54:03;19.30;64.30
25732;DHT22;13585;50.864;4.406;2023-04-24T01:56:29;19.30;65.00
25732;DHT22;13585;50.864;4.406;2023-04-24T01:58:58;19.30;64.20
25732;DHT22;13585;50.864;4.406;2023-04-24T02:01:25;19.30;64.20
25732;DHT22;13585;50.864;4.406;2023-04-24T02:03:50;19.30;64.10
25732;DHT22;13585;50.864;4.406;2023-04-24T02:06:16;19.30;64.10
25732;DHT22;13585;50.864;4.406;2023-04-24T02:08:42;19.30;64.00
25732;DHT22;13585;50.864;4.406;2023-04-24T02:11:10;19.30;64.00
25732;DHT22;13585;50.864;4.406;2023-04-24T02:13:36;19.30;63.90
25732;DHT22;13585;50.864;4.406;2023-04-24T02:16:01;19.30;63.90
25732;DHT22;13585;50.864;4.406;2023-04-24T02:18:27;19.30;63.80
25732;DHT22;13585;50.864;4.406;2023-04-24T02:20:53;19.30;63.80
25732;DHT22;13585;50.864;4.406;2023-04-24T02:23:19;19.30;63.80
25732;DHT22;13585;50.864;4.406;2023-04-24T02:25:44;19.30;63.70
25732;DHT22;13585;50.864;4.406;2023-04-24T02:28:11;19.30;63.60
25732;DHT22;13585;50.864;4.406;2023-04-24T02:30:36;19.30;63.60
25732;DHT22;13585;50.864;4.406;2023-04-24T02:33:02;19.30;63.60
25732;DHT22;13585;50.864;4.406;2023-04-24T02:35:31;19.30;63.50
25732;DHT22;13585;50.864;4.406;2023-04-24T02:37:57;19.30;63.40
25732;DHT22;13585;50.864;4.406;2023-04-24T02:40:22;19.30;63.40
25732;DHT22;13585;50.864;4.406;2023-04-24T02:42:48;19.30;63.40
25732;DHT22;13585;50.864;4.406;2023-04-24T02:45:14;19.20;63.20
25732;DHT22;13585;50.864;4.406;2023-04-24T02:47:39;19.20;63.10
25732;DHT22;13585;50.864;4.406;2023-04-24T02:50:06;19.20;63.10
25732;DHT22;13585;50.864;4.406;2023-04-24T02:52:31;19.20;63.10
25732;DHT22;13585;50.864;4.406;2023-04-24T02:54:57;19.20;63.90
25732;DHT22;13585;50.864;4.406;2023-04-24T02:57:23;19.20;63.10
25732;DHT22;13585;50.864;4.406;2023-04-24T02:59:48;19.20;63.10
25732;DHT22;13585;50.864;4.406;2023-04-24T03:02:14;19.20;63.10
25732;DHT22;13585;50.864;4.406;2023-04-24T03:04:40;19.20;63.00
25732;DHT22;13585;50.864;4.406;2023-04-24T03:07:05;19.20;63.00
25732;DHT22;13585;50.864;4.406;2023-04-24T03:09:31;19.20;63.00
25732;DHT22;13585;50.864;4.406;2023-04-24T03:11:59;19.20;63.00
25732;DHT22;13585;50.864;4.406;2023-04-24T03:14:32;19.20;62.90
25732;DHT22;13585;50.864;4.406;2023-04-24T03:16:58;19.20;62.80
25732;DHT22;13585;50.864;4.406;2023-04-24T03:19:24;19.20;62.80
25732;DHT22;13585;50.864;4.406;2023-04-24T03:21:50;19.20;62.80
25732;DHT22;13585;50.864;4.406;2023-04-24T03:24:15;19.20;62.80
25732;DHT22;13585;50.864;4.406;2023-04-24T03:26:41;19.20;62.80
25732;DHT22;13585;50.864;4.406;2023-04-24T03:29:06;19.20;62.70
25732;DHT22;13585;50.864;4.406;2023-04-24T03:31:32;19.20;62.60
25732;DHT22;13585;50.864;4.406;2023-04-24T03:33:58;19.20;62.60
25732;DHT22;13585;50.864;4.406;2023-04-24T03:36:23;19.20;62.60
25732;DHT22;13585;50.864;4.406;2023-04-24T03:38:49;19.20;62.60
25732;DHT22;13585;50.864;4.406;2023-04-24T03:41:15;19.20;62.50
25732;DHT22;13585;50.864;4.406;2023-04-24T03:43:40;19.20;62.50
25732;DHT22;13585;50.864;4.406;2023-04-24T03:46:06;19.20;62.50
25732;DHT22;13585;50.864;4.406;2023-04-24T03:48:34;19.20;62.50
25732;DHT22;13585;50.864;4.406;2023-04-24T03:51:00;19.20;62.40
25732;DHT22;13585;50.864;4.406;2023-04-24T03:53:26;19.20;62.40
25732;DHT22;13585;50.864;4.406;2023-04-24T03:55:52;19.20;62.30
25732;DHT22;13585;50.864;4.406;2023-04-24T03:58:18;19.20;62.30
25732;DHT22;13585;50.864;4.406;2023-04-24T04:00:44;19.20;62.30
25732;DHT22;13585;50.864;4.406;2023-04-24T04:03:10;19.20;62.30
25732;DHT22;13585;50.864;4.406;2023-04-24T04:05:35;19.20;62.20
25732;DHT22;13585;50.864;4.406;2023-04-24T04:08:01;19.20;62.20
25732;DHT22;13585;50.864;4.406;2023-04-24T04:10:27;19.20;62.20
25732;DHT22;13585;50.864;4.406;2023-04-24T04:12:52;19.20;62.20
25732;DHT22;13585;50.864;4.406;2023-04-24T04:15:18;19.20;62.10
25732;DHT22;13585;50.864;4.406;2023-04-24T04:17:44;19.20;62.10
25732;DHT22;13585;50.864;4.406;2023-04-24T04:20:11;19.20;62.10
25732;DHT22;13585;50.864;4.406;2023-04-24T04:22:37;19.20;62.10
25732;DHT22;13585;50.864;4.406;2023-04-24T04:25:03;19.10;62.00
25732;DHT22;13585;50.864;4.406;2023-04-24T04:27:30;19.20;62.10
25732;DHT22;13585;50.864;4.406;2023-04-24T04:29:58;19.20;62.00
25732;DHT22;13585;50.864;4.406;2023-04-24T04:32:26;19.20;62.00
25732;DHT22;13585;50.864;4.406;2023-04-24T04:34:52;19.20;62.00
25732;DHT22;13585;50.864;4.406;2023-04-24T04:37:18;19.20;62.00
25732;DHT22;13585;50.864;4.406;2023-04-24T04:39:44;19.20;61.90
25732;DHT22;13585;50.864;4.406;2023-04-24T04:42:10;19.10;61.90
25732;DHT22;13585;50.864;4.406;2023-04-24T04:44:35;19.10;61.90
25732;DHT22;13585;50.864;4.406;2023-04-24T04:47:02;19.10;61.80
25732;DHT22;13585;50.864;4.406;2023-04-24T04:49:31;19.10;61.80
25732;DHT22;13585;50.864;4.406;2023-04-24T04:51:57;19.20;61.80
25732;DHT22;13585;50.864;4.406;2023-04-24T04:54:23;19.20;61.80
25732;DHT22;13585;50.864;4.406;2023-04-24T04:56:51;19.10;61.80
25732;DHT22;13585;50.864;4.406;2023-04-24T04:59:17;19.10;61.80
25732;DHT22;13585;50.864;4.406;2023-04-24T05:01:42;19.10;61.70
25732;DHT22;13585;50.864;4.406;2023-04-24T05:04:08;19.10;61.70
25732;DHT22;13585;50.864;4.406;2023-04-24T05:06:34;19.10;61.70
25732;DHT22;13585;50.864;4.406;2023-04-24T05:08:59;19.10;61.70
25732;DHT22;13585;50.864;4.406;2023-04-24T05:11:27;19.20;61.70
25732;DHT22;13585;50.864;4.406;2023-04-24T05:13:53;19.10;61.70
25732;DHT22;13585;50.864;4.406;2023-04-24T05:16:18;19.10;61.70
25732;DHT22;13585;50.864;4.406;2023-04-24T05:18:44;19.10;61.60
25732;DHT22;13585;50.864;4.406;2023-04-24T05:21:10;19.10;62.40
25732;DHT22;13585;50.864;4.406;2023-04-24T05:23:35;19.10;61.60
25732;DHT22;13585;50.864;4.406;2023-04-24T05:26:01;19.10;61.60
25732;DHT22;13585;50.864;4.406;2023-04-24T05:28:26;19.10;61.70
25732;DHT22;13585;50.864;4.406;2023-04-24T05:30:54;19.10;61.70
25732;DHT22;13585;50.864;4.406;2023-04-24T05:33:21;19.10;61.70
25732;DHT22;13585;50.864;4.406;2023-04-24T05:35:47;19.10;61.70
25732;DHT22;13585;50.864;4.406;2023-04-24T05:38:14;19.10;61.70
25732;DHT22;13585;50.864;4.406;2023-04-24T05:40:43;19.10;61.70
25732;DHT22;13585;50.864;4.406;2023-04-24T05:43:08;19.10;61.70
25732;DHT22;13585;50.864;4.406;2023-04-24T05:45:34;19.10;61.70
25732;DHT22;13585;50.864;4.406;2023-04-24T05:48:01;19.10;61.70
25732;DHT22;13585;50.864;4.406;2023-04-24T05:50:27;19.10;61.80
25732;DHT22;13585;50.864;4.406;2023-04-24T05:52:53;19.10;61.80
25732;DHT22;13585;50.864;4.406;2023-04-24T05:55:19;19.10;61.90
25732;DHT22;13585;50.864;4.406;2023-04-24T05:57:44;19.10;62.00
25732;DHT22;13585;50.864;4.406;2023-04-24T06:00:11;19.10;62.00
25732;DHT22;13585;50.864;4.406;2023-04-24T06:02:38;19.20;62.10
25732;DHT22;13585;50.864;4.406;2023-04-24T06:05:04;19.10;62.00
25732;DHT22;13585;50.864;4.406;2023-04-24T06:07:30;19.10;62.00
25732;DHT22;13585;50.864;4.406;2023-04-24T06:09:56;19.20;62.10
25732;DHT22;13585;50.864;4.406;2023-04-24T06:12:22;19.10;62.00
25732;DHT22;13585;50.864;4.406;2023-04-24T06:14:48;19.10;62.00
25732;DHT22;13585;50.864;4.406;2023-04-24T06:17:14;19.10;62.10
25732;DHT22;13585;50.864;4.406;2023-04-24T06:19:39;19.10;62.00
25732;DHT22;13585;50.864;4.406;2023-04-24T06:22:06;19.10;62.00
25732;DHT22;13585;50.864;4.406;2023-04-24T06:24:31;19.10;62.00
25732;DHT22;13585;50.864;4.406;2023-04-24T06:26:57;19.10;61.90
25732;DHT22;13585;50.864;4.406;2023-04-24T06:29:25;19.20;62.00
25732;DHT22;13585;50.864;4.406;2023-04-24T06:31:50;19.10;61.90
25732;DHT22;13585;50.864;4.406;2023-04-24T06:34:16;19.10;61.80
25732;DHT22;13585;50.864;4.406;2023-04-24T06:36:41;19.10;61.90
25732;DHT22;13585;50.864;4.406;2023-04-24T06:39:07;19.10;61.80
25732;DHT22;13585;50.864;4.406;2023-04-24T06:41:33;19.10;61.70
25732;DHT22;13585;50.864;4.406;2023-04-24T06:43:58;19.10;61.70
25732;DHT22;13585;50.864;4.406;2023-04-24T06:46:24;19.10;61.70
25732;DHT22;13585;50.864;4.406;2023-04-24T06:48:52;19.10;61.70
25732;DHT22;13585;50.864;4.406;2023-04-24T06:51:24;19.10;61.60
25732;DHT22;13585;50.864;4.406;2023-04-24T06:53:51;19.10;61.60
25732;DHT22;13585;50.864;4.406;2023-04-24T06:56:16;19.10;61.60
25732;DHT22;13585;50.864;4.406;2023-04-24T06:58:42;19.10;61.60
25732;DHT22;13585;50.864;4.406;2023-04-24T07:01:08;19.10;61.60
25732;DHT22;13585;50.864;4.406;2023-04-24T07:03:33;19.10;61.50
25732;DHT22;13585;50.864;4.406;2023-04-24T07:05:59;19.10;61.60
25732;DHT22;13585;50.864;4.406;2023-04-24T07:08:24;19.10;61.50
25732;DHT22;13585;50.864;4.406;2023-04-24T07:10:50;19.10;61.50
25732;DHT22;13585;50.864;4.406;2023-04-24T07:13:16;19.10;61.50
25732;DHT22;13585;50.864;4.406;2023-04-24T07:15:43;19.10;61.50
25732;DHT22;13585;50.864;4.406;2023-04-24T07:18:08;19.10;61.50
25732;DHT22;13585;50.864;4.406;2023-04-24T07:20:34;19.10;61.50
25732;DHT22;13585;50.864;4.406;2023-04-24T07:23:00;19.10;61.40
25732;DHT22;13585;50.864;4.406;2023-04-24T07:25:25;19.10;61.40
25732;DHT22;13585;50.864;4.406;2023-04-24T07:27:51;19.10;61.40
25732;DHT22;13585;50.864;4.406;2023-04-24T07:30:17;19.10;61.40
25732;DHT22;13585;50.864;4.406;2023-04-24T07:32:43;19.10;61.40
25732;DHT22;13585;50.864;4.406;2023-04-24T07:35:09;19.10;61.40
25732;DHT22;13585;50.864;4.406;2023-04-24T07:37:35;19.10;61.30
25732;DHT22;13585;50.864;4.406;2023-04-24T07:40:01;19.10;61.40
25732;DHT22;13585;50.864;4.406;2023-04-24T07:42:27;19.00;61.40
25732;DHT22;13585;50.864;4.406;2023-04-24T07:44:53;19.10;61.40
25732;DHT22;13585;50.864;4.406;2023-04-24T07:47:19;19.10;61.50
25732;DHT22;13585;50.864;4.406;2023-04-24T07:49:44;19.10;61.50
25732;DHT22;13585;50.864;4.406;2023-04-24T07:52:10;19.10;62.20
25732;DHT22;13585;50.864;4.406;2023-04-24T07:54:36;19.10;62.20
25732;DHT22;13585;50.864;4.406;2023-04-24T07:57:02;19.10;61.50
25732;DHT22;13585;50.864;4.406;2023-04-24T07:59:28;19.10;61.50
25732;DHT22;13585;50.864;4.406;2023-04-24T08:01:54;19.10;61.60
25732;DHT22;13585;50.864;4.406;2023-04-24T08:04:19;19.10;61.60
25732;DHT22;13585;50.864;4.406;2023-04-24T08:06:47;19.10;61.60
25732;DHT22;13585;50.864;4.406;2023-04-24T08:09:12;19.10;61.70
25732;DHT22;13585;50.864;4.406;2023-04-24T08:11:38;19.10;61.60
25732;DHT22;13585;50.864;4.406;2023-04-24T08:14:04;19.10;61.60
25732;DHT22;13585;50.864;4.406;2023-04-24T08:16:29;19.10;61.60
25732;DHT22;13585;50.864;4.406;2023-04-24T08:18:55;19.10;61.60
25732;DHT22;13585;50.864;4.406;2023-04-24T08:21:20;19.10;61.60
25732;DHT22;13585;50.864;4.406;2023-04-24T08:23:46;19.10;61.60
25732;DHT22;13585;50.864;4.406;2023-04-24T08:26:13;19.10;61.60
25732;DHT22;13585;50.864;4.406;2023-04-24T08:28:39;19.10;61.60
25732;DHT22;13585;50.864;4.406;2023-04-24T08:31:04;19.10;61.60
25732;DHT22;13585;50.864;4.406;2023-04-24T08:33:30;19.10;61.60
25732;DHT22;13585;50.864;4.406;2023-04-24T08:36:03;19.10;61.60
25732;DHT22;13585;50.864;4.406;2023-04-24T08:38:29;19.10;61.60
25732;DHT22;13585;50.864;4.406;2023-04-24T08:40:57;19.10;61.60
25732;DHT22;13585;50.864;4.406;2023-04-24T08:43:23;19.10;61.50
25732;DHT22;13585;50.864;4.406;2023-04-24T08:45:50;19.10;61.60
25732;DHT22;13585;50.864;4.406;2023-04-24T08:48:17;19.10;61.60
25732;DHT22;13585;50.864;4.406;2023-04-24T08:50:42;19.10;61.60
25732;DHT22;13585;50.864;4.406;2023-04-24T08:53:10;19.10;61.60
25732;DHT22;13585;50.864;4.406;2023-04-24T08:55:37;19.10;61.60
25732;DHT22;13585;50.864;4.406;2023-04-24T08:58:03;19.10;61.60
25732;DHT22;13585;50.864;4.406;2023-04-24T09:00:29;19.10;61.60
25732;DHT22;13585;50.864;4.406;2023-04-24T09:02:56;19.10;61.60
25732;DHT22;13585;50.864;4.406;2023-04-24T09:05:23;19.10;61.60
25732;DHT22;13585;50.864;4.406;2023-04-24T09:07:55;19.20;61.80
25732;DHT22;13585;50.864;4.406;2023-04-24T09:10:22;19.10;61.70
25732;DHT22;13585;50.864;4.406;2023-04-24T09:12:50;19.10;61.70
25732;DHT22;13585;50.864;4.406;2023-04-24T09:15:16;19.10;61.80
25732;DHT22;13585;50.864;4.406;2023-04-24T09:17:42;19.10;61.90
25732;DHT22;13585;50.864;4.406;2023-04-24T09:20:08;19.10;62.00
25732;DHT22;13585;50.864;4.406;2023-04-24T09:22:34;19.10;62.00
25732;DHT22;13585;50.864;4.406;2023-04-24T09:25:04;19.10;62.10
25732;DHT22;13585;50.864;4.406;2023-04-24T09:27:32;19.10;62.20
25732;DHT22;13585;50.864;4.406;2023-04-24T09:29:58;19.10;62.20
25732;DHT22;13585;50.864;4.406;2023-04-24T09:32:25;19.20;62.30
25732;DHT22;13585;50.864;4.406;2023-04-24T09:35:06;19.10;62.30
25732;DHT22;13585;50.864;4.406;2023-04-24T09:37:35;19.10;62.40
25732;DHT22;13585;50.864;4.406;2023-04-24T09:42:35;19.10;62.40
25732;DHT22;13585;50.864;4.406;2023-04-24T09:45:01;19.10;62.40
25732;DHT22;13585;50.864;4.406;2023-04-24T09:47:27;19.10;62.40
25732;DHT22;13585;50.864;4.406;2023-04-24T09:49:57;19.10;62.40
25732;DHT22;13585;50.864;4.406;2023-04-24T09:52:23;19.10;62.50
25732;DHT22;13585;50.864;4.406;2023-04-24T09:54:53;19.10;62.50
25732;DHT22;13585;50.864;4.406;2023-04-24T09:57:19;19.10;62.50
25732;DHT22;13585;50.864;4.406;2023-04-24T09:59:46;19.10;62.60
25732;DHT22;13585;50.864;4.406;2023-04-24T10:02:19;19.10;62.60
25732;DHT22;13585;50.864;4.406;2023-04-24T10:04:55;19.10;62.70
25732;DHT22;13585;50.864;4.406;2023-04-24T10:07:28;19.10;62.70
25732;DHT22;13585;50.864;4.406;2023-04-24T10:09:54;19.20;62.70
25732;DHT22;13585;50.864;4.406;2023-04-24T10:12:20;19.10;62.70
25732;DHT22;13585;50.864;4.406;2023-04-24T10:14:46;19.10;62.70
25732;DHT22;13585;50.864;4.406;2023-04-24T10:17:12;19.10;62.80
25732;DHT22;13585;50.864;4.406;2023-04-24T10:19:40;19.10;62.80
25732;DHT22;13585;50.864;4.406;2023-04-24T10:22:06;19.10;62.80
25732;DHT22;13585;50.864;4.406;2023-04-24T10:24:33;19.10;62.80
25732;DHT22;13585;50.864;4.406;2023-04-24T10:27:01;19.10;62.80
25732;DHT22;13585;50.864;4.406;2023-04-24T10:29:27;19.10;62.90
25732;DHT22;13585;50.864;4.406;2023-04-24T10:31:55;19.10;62.90
25732;DHT22;13585;50.864;4.406;2023-04-24T10:34:22;19.10;62.90
25732;DHT22;13585;50.864;4.406;2023-04-24T10:36:51;19.10;62.90
25732;DHT22;13585;50.864;4.406;2023-04-24T10:39:18;19.10;62.90
25732;DHT22;13585;50.864;4.406;2023-04-24T10:41:45;19.10;63.00
25732;DHT22;13585;50.864;4.406;2023-04-24T10:44:15;19.10;63.00
25732;DHT22;13585;50.864;4.406;2023-04-24T10:46:45;19.10;63.00
25732;DHT22;13585;50.864;4.406;2023-04-24T10:49:11;19.20;63.00
25732;DHT22;13585;50.864;4.406;2023-04-24T10:51:51;19.10;63.00
25732;DHT22;13585;50.864;4.406;2023-04-24T10:59:46;19.10;63.00
25732;DHT22;13585;50.864;4.406;2023-04-24T11:02:14;19.10;63.00
25732;DHT22;13585;50.864;4.406;2023-04-24T11:04:40;19.10;63.10
25732;DHT22;13585;50.864;4.406;2023-04-24T11:07:09;19.10;63.00
25732;DHT22;13585;50.864;4.406;2023-04-24T11:09:35;19.10;63.00
25732;DHT22;13585;50.864;4.406;2023-04-24T11:12:08;19.10;63.10
25732;DHT22;13585;50.864;4.406;2023-04-24T11:17:37;19.10;63.00
25732;DHT22;13585;50.864;4.406;2023-04-24T11:20:11;19.10;63.00
25732;DHT22;13585;50.864;4.406;2023-04-24T11:22:39;19.10;63.00
25732;DHT22;13585;50.864;4.406;2023-04-24T11:25:09;19.10;63.00
25732;DHT22;13585;50.864;4.406;2023-04-24T11:27:44;19.10;63.00
25732;DHT22;13585;50.864;4.406;2023-04-24T11:30:11;19.10;63.10
25732;DHT22;13585;50.864;4.406;2023-04-24T11:32:41;19.10;63.00
25732;DHT22;13585;50.864;4.406;2023-04-24T11:35:21;19.10;63.00
25732;DHT22;13585;50.864;4.406;2023-04-24T11:37:52;19.10;63.00
25732;DHT22;13585;50.864;4.406;2023-04-24T11:40:19;19.10;63.00
25732;DHT22;13585;50.864;4.406;2023-04-24T11:42:49;19.10;63.00
25732;DHT22;13585;50.864;4.406;2023-04-24T11:47:49;19.10;63.00
25732;DHT22;13585;50.864;4.406;2023-04-24T11:50:16;19.20;63.10
25732;DHT22;13585;50.864;4.406;2023-04-24T11:52:44;19.10;63.00
25732;DHT22;13585;50.864;4.406;2023-04-24T11:57:48;19.10;63.00
25732;DHT22;13585;50.864;4.406;2023-04-24T12:00:19;19.20;63.00
25732;DHT22;13585;50.864;4.406;2023-04-24T12:02:46;19.20;62.90
25732;DHT22;13585;50.864;4.406;2023-04-24T12:05:23;19.10;62.90
25732;DHT22;13585;50.864;4.406;2023-04-24T12:07:48;19.10;63.00
25732;DHT22;13585;50.864;4.406;2023-04-24T12:10:19;19.10;63.10
25732;DHT22;13585;50.864;4.406;2023-04-24T12:12:45;19.10;63.00
25732;DHT22;13585;50.864;4.406;2023-04-24T12:15:11;19.10;63.00
25732;DHT22;13585;50.864;4.406;2023-04-24T12:17:41;19.20;63.10
25732;DHT22;13585;50.864;4.406;2023-04-24T12:20:08;19.10;63.00
25732;DHT22;13585;50.864;4.406;2023-04-24T12:25:19;19.10;63.00
25732;DHT22;13585;50.864;4.406;2023-04-24T12:27:50;19.10;63.10
25732;DHT22;13585;50.864;4.406;2023-04-24T12:30:17;19.20;63.10
25732;DHT22;13585;50.864;4.406;2023-04-24T12:32:44;19.20;63.10
25732;DHT22;13585;50.864;4.406;2023-04-24T12:35:10;19.20;63.00
25732;DHT22;13585;50.864;4.406;2023-04-24T12:37:36;19.20;63.10
25732;DHT22;13585;50.864;4.406;2023-04-24T12:42:29;19.10;63.20
25732;DHT22;13585;50.864;4.406;2023-04-24T12:45:06;19.20;63.40
25732;DHT22;13585;50.864;4.406;2023-04-24T12:47:33;19.10;63.50
25732;DHT22;13585;50.864;4.406;2023-04-24T12:49:59;19.20;63.50
25732;DHT22;13585;50.864;4.406;2023-04-24T12:52:26;19.20;63.50
25732;DHT22;13585;50.864;4.406;2023-04-24T12:54:53;19.20;63.60
25732;DHT22;13585;50.864;4.406;2023-04-24T12:57:20;19.20;63.70
25732;DHT22;13585;50.864;4.406;2023-04-24T12:59:46;19.20;63.70
25732;DHT22;13585;50.864;4.406;2023-04-24T13:02:12;19.20;63.90
25732;DHT22;13585;50.864;4.406;2023-04-24T13:04:38;19.20;64.00
25732;DHT22;13585;50.864;4.406;2023-04-24T13:07:04;19.20;64.00
25732;DHT22;13585;50.864;4.406;2023-04-24T13:09:30;19.20;64.10
25732;DHT22;13585;50.864;4.406;2023-04-24T13:11:56;19.20;64.20
25732;DHT22;13585;50.864;4.406;2023-04-24T13:14:22;19.20;64.20
25732;DHT22;13585;50.864;4.406;2023-04-24T13:16:48;19.20;64.40
25732;DHT22;13585;50.864;4.406;2023-04-24T13:19:14;19.20;64.40
25732;DHT22;13585;50.864;4.406;2023-04-24T13:21:40;19.20;64.40
25732;DHT22;13585;50.864;4.406;2023-04-24T13:24:06;19.20;64.40
25732;DHT22;13585;50.864;4.406;2023-04-24T13:26:33;19.20;64.50
25732;DHT22;13585;50.864;4.406;2023-04-24T13:28:58;19.20;64.60
25732;DHT22;13585;50.864;4.406;2023-04-24T13:31:24;19.30;64.60
25732;DHT22;13585;50.864;4.406;2023-04-24T13:33:50;19.30;65.40
25732;DHT22;13585;50.864;4.406;2023-04-24T13:36:16;19.30;64.70
25732;DHT22;13585;50.864;4.406;2023-04-24T13:38:45;19.30;65.00
25732;DHT22;13585;50.864;4.406;2023-04-24T13:41:11;19.30;64.80
25732;DHT22;13585;50.864;4.406;2023-04-24T13:43:36;19.30;64.80
25732;DHT22;13585;50.864;4.406;2023-04-24T13:46:03;19.30;64.80
25732;DHT22;13585;50.864;4.406;2023-04-24T13:48:29;19.20;64.80
25732;DHT22;13585;50.864;4.406;2023-04-24T13:50:55;19.30;64.90
25732;DHT22;13585;50.864;4.406;2023-04-24T13:53:21;19.30;64.90
25732;DHT22;13585;50.864;4.406;2023-04-24T13:55:47;19.30;64.90
25732;DHT22;13585;50.864;4.406;2023-04-24T13:58:13;19.30;64.90
25732;DHT22;13585;50.864;4.406;2023-04-24T14:00:39;19.30;65.00
25732;DHT22;13585;50.864;4.406;2023-04-24T14:03:04;19.30;65.10
25732;DHT22;13585;50.864;4.406;2023-04-24T14:05:30;19.30;65.00
25732;DHT22;13585;50.864;4.406;2023-04-24T14:07:55;19.30;65.00
25732;DHT22;13585;50.864;4.406;2023-04-24T14:10:21;19.30;65.00
25732;DHT22;13585;50.864;4.406;2023-04-24T14:12:47;19.30;65.10
25732;DHT22;13585;50.864;4.406;2023-04-24T14:15:12;19.30;65.10
25732;DHT22;13585;50.864;4.406;2023-04-24T14:17:39;19.30;65.10
25732;DHT22;13585;50.864;4.406;2023-04-24T14:20:05;19.30;65.10
25732;DHT22;13585;50.864;4.406;2023-04-24T14:22:32;19.30;65.20
25732;DHT22;13585;50.864;4.406;2023-04-24T14:24:58;19.30;65.20
25732;DHT22;13585;50.864;4.406;2023-04-24T14:27:24;19.30;65.20
25732;DHT22;13585;50.864;4.406;2023-04-24T14:29:50;19.30;65.20
25732;DHT22;13585;50.864;4.406;2023-04-24T14:32:16;19.30;65.30
25732;DHT22;13585;50.864;4.406;2023-04-24T14:34:41;19.30;65.30
25732;DHT22;13585;50.864;4.406;2023-04-24T14:37:07;19.30;65.40
25732;DHT22;13585;50.864;4.406;2023-04-24T14:39:33;19.30;65.40
25732;DHT22;13585;50.864;4.406;2023-04-24T14:41:58;19.30;65.40
25732;DHT22;13585;50.864;4.406;2023-04-24T14:44:24;19.30;65.40
25732;DHT22;13585;50.864;4.406;2023-04-24T14:46:50;19.30;65.50
25732;DHT22;13585;50.864;4.406;2023-04-24T14:49:16;19.30;65.50
25732;DHT22;13585;50.864;4.406;2023-04-24T14:51:41;19.30;65.50
25732;DHT22;13585;50.864;4.406;2023-04-24T14:54:08;19.30;65.60
25732;DHT22;13585;50.864;4.406;2023-04-24T14:56:33;19.30;65.60
25732;DHT22;13585;50.864;4.406;2023-04-24T14:58:59;19.30;65.70
25732;DHT22;13585;50.864;4.406;2023-04-24T15:01:25;19.30;66.50
25732;DHT22;13585;50.864;4.406;2023-04-24T15:03:50;19.30;65.70
25732;DHT22;13585;50.864;4.406;2023-04-24T15:06:16;19.30;65.70
25732;DHT22;13585;50.864;4.406;2023-04-24T15:08:42;19.20;65.70
25732;DHT22;13585;50.864;4.406;2023-04-24T15:11:08;19.30;65.80
25732;DHT22;13585;50.864;4.406;2023-04-24T15:13:34;19.30;65.80
25732;DHT22;13585;50.864;4.406;2023-04-24T15:16:00;19.30;65.90
25732;DHT22;13585;50.864;4.406;2023-04-24T15:18:26;19.30;65.90
25732;DHT22;13585;50.864;4.406;2023-04-24T15:20:53;19.30;65.90
25732;DHT22;13585;50.864;4.406;2023-04-24T15:23:18;19.30;65.90
25732;DHT22;13585;50.864;4.406;2023-04-24T15:25:44;19.30;66.00
25732;DHT22;13585;50.864;4.406;2023-04-24T15:28:10;19.30;66.00
25732;DHT22;13585;50.864;4.406;2023-04-24T15:30:35;19.30;66.00
25732;DHT22;13585;50.864;4.406;2023-04-24T15:33:01;19.30;66.00
25732;DHT22;13585;50.864;4.406;2023-04-24T15:35:27;19.30;66.00
25732;DHT22;13585;50.864;4.406;2023-04-24T15:37:52;19.30;66.00
25732;DHT22;13585;50.864;4.406;2023-04-24T15:40:18;19.30;66.00
25732;DHT22;13585;50.864;4.406;2023-04-24T15:42:44;19.30;66.00
25732;DHT22;13585;50.864;4.406;2023-04-24T15:45:10;19.40;66.10
25732;DHT22;13585;50.864;4.406;2023-04-24T15:47:37;19.30;66.90